Ireland West Airport Knock, Ireland

10:01 PM IST on September 03, 2015 (GMT +0100)
Charlestown | | Change Station
CLOSE
Current Station
Personal Weather Station
Location: Charlestown, MAYO
Elevation: 233 ft
Nearby Weather Stations

Elev 233 ft 53.96 °N, 8.79 °W | Updated 22 seconds ago

Overcast
Overcast
53.4 °F
Feels Like 53.4 °F
N
11.4
Wind Variable Wind from NNW
Gusts 21.3 mph

Today
High -- | Low -- °F
--% Chance of Precip.
Yesterday
High -- | Low -- °F
Precip. -- in
6:46 AM 8:21 PM
Waning Gibbous, 67% visible
Pressure 30.24 in
Visibility 6.2 miles
Clouds Scattered Clouds 2000 ft
Overcast 3000 ft
Dew Point 48 °F
Humidity 83%
Rainfall 0.02 in
Snow Depth Not available.
UV 0 out of 12
Pollen Not available.
Air Quality Not available.
Flu Activity Not available.
METAR EISG 032000Z 34011KT 9999 SCT020 OVC030 13/10 Q1024
Pressure 30.24 in
Visibility 6.2 miles
Clouds Scattered Clouds 2000 ft
Overcast 3000 ft
Dew Point 48 °F
Humidity 83%
Rainfall 0.02 in
Snow Depth Not available.
UV 0 out of 12
Pollen Not available.
Air Quality Not available.
Flu Activity Not available.
METAR EISG 032000Z 34011KT 9999 SCT020 OVC030 13/10 Q1024

10-Day Weather Forecast

×

Almanac

Astronomy

Sep. 03, 2015 Rise Set
Actual Time
Civil Twilight
Nautical Twilight
Astronomical Twilight
Moon
Length of Visible Light
Length of Day
Tomorrow will be .
, % of the Moon is Illuminated

Today's Extremes

Country Highs Country Lows

Community

WunderPhotos

Upload Photos

1,852,037 photos uploaded!

WunderBlogs® & News

Nearby

Air Quality

  Air Quality AQ Index Pollutant
Not available.

Snow Depth

Station Depth Elevation

Earthquake Activity

City Distance Mag. Time & Date
Minimum magnitude displayed is 2.5.

Coastal Water Temperatures

Place Temperature

Stations

Nearby Weather Stations

Station Location Temp. Windchill Dew Point Humidity Wind Precip. Elev Updated Type